sensor_id;sensor_type;location;lat;lon;timestamp;temperature;humidity
8684;DHT22;4379;59.744;18.206;2023-05-07T00:02:03;-2.20;99.90
8684;DHT22;4379;59.744;18.206;2023-05-07T00:04:30;-2.20;99.90
8684;DHT22;4379;59.744;18.206;2023-05-07T00:07:04;-2.20;99.90
8684;DHT22;4379;59.744;18.206;2023-05-07T00:09:31;-2.20;99.90
8684;DHT22;4379;59.744;18.206;2023-05-07T00:11:58;-2.20;99.90
8684;DHT22;4379;59.744;18.206;2023-05-07T00:14:26;-2.20;99.90
8684;DHT22;4379;59.744;18.206;2023-05-07T00:16:53;-2.20;99.90
8684;DHT22;4379;59.744;18.206;2023-05-07T00:19:21;-2.30;99.90
8684;DHT22;4379;59.744;18.206;2023-05-07T00:21:48;-2.40;99.90
8684;DHT22;4379;59.744;18.206;2023-05-07T00:24:18;-2.40;99.90
8684;DHT22;4379;59.744;18.206;2023-05-07T00:26:45;-2.50;99.90
8684;DHT22;4379;59.744;18.206;2023-05-07T00:29:12;-2.50;99.90
8684;DHT22;4379;59.744;18.206;2023-05-07T00:31:40;-2.50;99.90
8684;DHT22;4379;59.744;18.206;2023-05-07T00:34:07;-2.50;99.90
8684;DHT22;4379;59.744;18.206;2023-05-07T00:36:34;-2.50;99.90
8684;DHT22;4379;59.744;18.206;2023-05-07T00:39:02;-2.50;99.90
8684;DHT22;4379;59.744;18.206;2023-05-07T00:41:30;-2.60;99.90
8684;DHT22;4379;59.744;18.206;2023-05-07T00:43:57;-2.70;99.90
8684;DHT22;4379;59.744;18.206;2023-05-07T00:46:25;-2.60;99.90
8684;DHT22;4379;59.744;18.206;2023-05-07T00:48:53;-2.70;99.90
8684;DHT22;4379;59.744;18.206;2023-05-07T00:51:21;-2.70;99.90
8684;DHT22;4379;59.744;18.206;2023-05-07T00:53:49;-2.70;99.90
8684;DHT22;4379;59.744;18.206;2023-05-07T00:56:17;-2.70;99.90
8684;DHT22;4379;59.744;18.206;2023-05-07T00:58:44;-2.70;99.90
8684;DHT22;4379;59.744;18.206;2023-05-07T01:01:14;-2.80;99.90
8684;DHT22;4379;59.744;18.206;2023-05-07T01:03:43;-2.80;99.90
8684;DHT22;4379;59.744;18.206;2023-05-07T01:06:14;-2.70;99.90
8684;DHT22;4379;59.744;18.206;2023-05-07T01:08:44;-2.70;99.90
8684;DHT22;4379;59.744;18.206;2023-05-07T01:11:12;-2.80;99.90
8684;DHT22;4379;59.744;18.206;2023-05-07T01:13:39;-2.70;99.90
8684;DHT22;4379;59.744;18.206;2023-05-07T01:16:09;-2.70;99.90
8684;DHT22;4379;59.744;18.206;2023-05-07T01:18:36;-2.70;99.90
8684;DHT22;4379;59.744;18.206;2023-05-07T01:21:05;-2.70;99.90
8684;DHT22;4379;59.744;18.206;2023-05-07T01:23:33;-2.70;99.90
8684;DHT22;4379;59.744;18.206;2023-05-07T01:26:00;-2.80;99.90
8684;DHT22;4379;59.744;18.206;2023-05-07T01:28:27;-2.80;99.90
8684;DHT22;4379;59.744;18.206;2023-05-07T01:31:00;-2.80;99.90
8684;DHT22;4379;59.744;18.206;2023-05-07T01:33:31;-2.90;99.90
8684;DHT22;4379;59.744;18.206;2023-05-07T01:35:59;-2.90;99.90
8684;DHT22;4379;59.744;18.206;2023-05-07T01:38:33;-2.90;99.90
8684;DHT22;4379;59.744;18.206;2023-05-07T01:41:01;-3.00;99.90
8684;DHT22;4379;59.744;18.206;2023-05-07T01:43:29;-3.00;99.90
8684;DHT22;4379;59.744;18.206;2023-05-07T01:45:58;-3.00;99.90
8684;DHT22;4379;59.744;18.206;2023-05-07T01:48:26;-3.00;99.90
8684;DHT22;4379;59.744;18.206;2023-05-07T01:50:53;-3.00;99.90
8684;DHT22;4379;59.744;18.206;2023-05-07T01:53:21;-3.00;99.90
8684;DHT22;4379;59.744;18.206;2023-05-07T01:55:48;-3.00;99.90
8684;DHT22;4379;59.744;18.206;2023-05-07T01:58:16;-3.00;99.90
8684;DHT22;4379;59.744;18.206;2023-05-07T02:00:43;-3.00;99.90
8684;DHT22;4379;59.744;18.206;2023-05-07T02:03:10;-3.10;99.90
8684;DHT22;4379;59.744;18.206;2023-05-07T02:05:37;-3.10;99.90
8684;DHT22;4379;59.744;18.206;2023-05-07T02:08:05;-3.20;99.90
8684;DHT22;4379;59.744;18.206;2023-05-07T02:10:32;-3.10;99.90
8684;DHT22;4379;59.744;18.206;2023-05-07T02:12:59;-3.20;99.90
8684;DHT22;4379;59.744;18.206;2023-05-07T02:15:28;-3.20;99.90
8684;DHT22;4379;59.744;18.206;2023-05-07T02:20:27;-3.20;99.90
8684;DHT22;4379;59.744;18.206;2023-05-07T02:22:54;-3.20;99.90
8684;DHT22;4379;59.744;18.206;2023-05-07T02:25:21;-3.20;99.90
8684;DHT22;4379;59.744;18.206;2023-05-07T02:27:49;-3.20;99.90
8684;DHT22;4379;59.744;18.206;2023-05-07T02:30:16;-3.20;99.90
8684;DHT22;4379;59.744;18.206;2023-05-07T02:32:43;-3.20;99.90
8684;DHT22;4379;59.744;18.206;2023-05-07T02:35:11;-3.20;99.90
8684;DHT22;4379;59.744;18.206;2023-05-07T02:37:41;-3.20;99.90
8684;DHT22;4379;59.744;18.206;2023-05-07T02:40:09;-3.20;99.90
8684;DHT22;4379;59.744;18.206;2023-05-07T02:42:38;-3.20;99.90
8684;DHT22;4379;59.744;18.206;2023-05-07T02:45:06;-3.20;99.90
8684;DHT22;4379;59.744;18.206;2023-05-07T02:47:33;-3.20;99.90
8684;DHT22;4379;59.744;18.206;2023-05-07T02:50:00;-3.20;99.90
8684;DHT22;4379;59.744;18.206;2023-05-07T02:52:27;-3.20;99.90
8684;DHT22;4379;59.744;18.206;2023-05-07T02:54:54;-3.20;99.90
8684;DHT22;4379;59.744;18.206;2023-05-07T02:57:22;-3.20;99.90
8684;DHT22;4379;59.744;18.206;2023-05-07T02:59:49;-3.20;99.90
8684;DHT22;4379;59.744;18.206;2023-05-07T03:02:16;-3.20;99.90
8684;DHT22;4379;59.744;18.206;2023-05-07T03:04:44;-3.20;99.90
8684;DHT22;4379;59.744;18.206;2023-05-07T03:07:11;-3.20;99.90
8684;DHT22;4379;59.744;18.206;2023-05-07T03:09:38;-3.20;99.90
8684;DHT22;4379;59.744;18.206;2023-05-07T03:12:05;-3.20;99.90
8684;DHT22;4379;59.744;18.206;2023-05-07T03:14:32;-3.00;99.90
8684;DHT22;4379;59.744;18.206;2023-05-07T03:17:00;-3.10;99.90
8684;DHT22;4379;59.744;18.206;2023-05-07T03:19:27;-3.00;99.90
8684;DHT22;4379;59.744;18.206;2023-05-07T03:21:54;-3.00;99.90
8684;DHT22;4379;59.744;18.206;2023-05-07T03:24:22;-3.00;99.90
8684;DHT22;4379;59.744;18.206;2023-05-07T03:26:49;-3.00;99.90
8684;DHT22;4379;59.744;18.206;2023-05-07T03:29:16;-3.10;99.90
8684;DHT22;4379;59.744;18.206;2023-05-07T03:31:44;-3.00;99.90
8684;DHT22;4379;59.744;18.206;2023-05-07T03:34:12;-3.00;99.90
8684;DHT22;4379;59.744;18.206;2023-05-07T03:36:41;-2.90;99.90
8684;DHT22;4379;59.744;18.206;2023-05-07T03:39:08;-2.90;99.90
8684;DHT22;4379;59.744;18.206;2023-05-07T03:41:36;-2.80;99.90
8684;DHT22;4379;59.744;18.206;2023-05-07T03:44:03;-2.80;99.90
8684;DHT22;4379;59.744;18.206;2023-05-07T03:46:30;-2.80;99.90
8684;DHT22;4379;59.744;18.206;2023-05-07T03:49:03;-2.70;99.90
8684;DHT22;4379;59.744;18.206;2023-05-07T03:51:30;-2.60;99.90
8684;DHT22;4379;59.744;18.206;2023-05-07T03:53:57;-2.50;99.90
8684;DHT22;4379;59.744;18.206;2023-05-07T03:56:24;-2.40;99.90
8684;DHT22;4379;59.744;18.206;2023-05-07T03:58:54;-1.70;99.90
8684;DHT22;4379;59.744;18.206;2023-05-07T04:01:21;-1.10;99.90
8684;DHT22;4379;59.744;18.206;2023-05-07T04:03:48;-0.70;99.90
8684;DHT22;4379;59.744;18.206;2023-05-07T04:06:18;-0.70;99.90
8684;DHT22;4379;59.744;18.206;2023-05-07T04:08:45;-0.50;99.90
8684;DHT22;4379;59.744;18.206;2023-05-07T04:11:12;-0.40;99.90
8684;DHT22;4379;59.744;18.206;2023-05-07T04:13:40;0.50;99.90
8684;DHT22;4379;59.744;18.206;2023-05-07T04:16:07;1.90;99.90
8684;DHT22;4379;59.744;18.206;2023-05-07T04:18:34;2.70;99.90
8684;DHT22;4379;59.744;18.206;2023-05-07T04:21:01;2.90;99.90
8684;DHT22;4379;59.744;18.206;2023-05-07T04:23:29;2.50;99.90
8684;DHT22;4379;59.744;18.206;2023-05-07T04:25:56;2.20;99.90
8684;DHT22;4379;59.744;18.206;2023-05-07T04:28:24;1.90;99.90
8684;DHT22;4379;59.744;18.206;2023-05-07T04:30:51;1.60;99.90
8684;DHT22;4379;59.744;18.206;2023-05-07T04:33:18;2.10;99.90
8684;DHT22;4379;59.744;18.206;2023-05-07T04:35:45;2.40;99.90
8684;DHT22;4379;59.744;18.206;2023-05-07T04:38:13;2.70;99.90
8684;DHT22;4379;59.744;18.206;2023-05-07T04:40:40;2.90;99.90
8684;DHT22;4379;59.744;18.206;2023-05-07T04:43:08;3.00;99.90
8684;DHT22;4379;59.744;18.206;2023-05-07T04:45:36;3.20;99.90
8684;DHT22;4379;59.744;18.206;2023-05-07T04:48:03;3.20;99.90
8684;DHT22;4379;59.744;18.206;2023-05-07T04:50:31;3.60;99.90
8684;DHT22;4379;59.744;18.206;2023-05-07T04:53:00;4.10;99.90
8684;DHT22;4379;59.744;18.206;2023-05-07T04:55:28;4.10;99.90
8684;DHT22;4379;59.744;18.206;2023-05-07T04:57:55;4.30;99.90
8684;DHT22;4379;59.744;18.206;2023-05-07T05:00:23;4.60;99.90
8684;DHT22;4379;59.744;18.206;2023-05-07T05:02:52;5.00;99.90
8684;DHT22;4379;59.744;18.206;2023-05-07T05:05:19;5.60;99.90
8684;DHT22;4379;59.744;18.206;2023-05-07T05:07:46;6.20;99.90
8684;DHT22;4379;59.744;18.206;2023-05-07T05:10:14;7.00;99.90
8684;DHT22;4379;59.744;18.206;2023-05-07T05:12:41;8.30;99.90
8684;DHT22;4379;59.744;18.206;2023-05-07T05:15:09;10.00;99.90
8684;DHT22;4379;59.744;18.206;2023-05-07T05:17:37;12.10;99.90
8684;DHT22;4379;59.744;18.206;2023-05-07T05:20:05;14.40;99.90
8684;DHT22;4379;59.744;18.206;2023-05-07T05:22:33;16.80;99.90
8684;DHT22;4379;59.744;18.206;2023-05-07T05:25:00;16.40;99.90
8684;DHT22;4379;59.744;18.206;2023-05-07T05:27:28;18.80;99.90
8684;DHT22;4379;59.744;18.206;2023-05-07T05:29:56;20.00;99.90
8684;DHT22;4379;59.744;18.206;2023-05-07T05:32:23;21.00;99.90
8684;DHT22;4379;59.744;18.206;2023-05-07T05:34:50;21.60;99.90
8684;DHT22;4379;59.744;18.206;2023-05-07T05:37:18;22.40;98.00
8684;DHT22;4379;59.744;18.206;2023-05-07T05:39:45;22.20;96.60
8684;DHT22;4379;59.744;18.206;2023-05-07T05:42:12;23.50;95.70
8684;DHT22;4379;59.744;18.206;2023-05-07T05:44:39;23.40;95.00
8684;DHT22;4379;59.744;18.206;2023-05-07T05:47:06;25.10;93.20
8684;DHT22;4379;59.744;18.206;2023-05-07T05:49:33;23.90;93.50
8684;DHT22;4379;59.744;18.206;2023-05-07T05:52:02;24.00;93.50
8684;DHT22;4379;59.744;18.206;2023-05-07T05:54:29;23.80;92.40
8684;DHT22;4379;59.744;18.206;2023-05-07T05:56:56;22.40;93.70
8684;DHT22;4379;59.744;18.206;2023-05-07T05:59:23;22.80;93.10
8684;DHT22;4379;59.744;18.206;2023-05-07T06:01:51;24.80;91.60
8684;DHT22;4379;59.744;18.206;2023-05-07T06:04:18;25.00;91.70
8684;DHT22;4379;59.744;18.206;2023-05-07T06:06:46;25.30;90.50
8684;DHT22;4379;59.744;18.206;2023-05-07T06:09:13;27.00;89.70
8684;DHT22;4379;59.744;18.206;2023-05-07T06:11:40;26.00;87.40
8684;DHT22;4379;59.744;18.206;2023-05-07T06:14:07;27.20;86.30
8684;DHT22;4379;59.744;18.206;2023-05-07T06:16:35;27.20;85.70
8684;DHT22;4379;59.744;18.206;2023-05-07T06:19:03;27.70;84.90
8684;DHT22;4379;59.744;18.206;2023-05-07T06:21:30;28.30;82.80
8684;DHT22;4379;59.744;18.206;2023-05-07T06:23:58;28.50;82.00
8684;DHT22;4379;59.744;18.206;2023-05-07T06:26:25;28.50;80.50
8684;DHT22;4379;59.744;18.206;2023-05-07T06:28:52;26.00;81.60
8684;DHT22;4379;59.744;18.206;2023-05-07T06:31:20;25.30;82.50
8684;DHT22;4379;59.744;18.206;2023-05-07T06:33:48;25.00;81.80
8684;DHT22;4379;59.744;18.206;2023-05-07T06:36:16;26.40;79.50
8684;DHT22;4379;59.744;18.206;2023-05-07T06:38:45;25.30;80.40
8684;DHT22;4379;59.744;18.206;2023-05-07T06:41:12;26.10;80.60
8684;DHT22;4379;59.744;18.206;2023-05-07T06:43:39;24.80;80.20
8684;DHT22;4379;59.744;18.206;2023-05-07T06:46:07;25.00;80.50
8684;DHT22;4379;59.744;18.206;2023-05-07T06:48:34;24.40;78.10
8684;DHT22;4379;59.744;18.206;2023-05-07T06:51:01;24.10;83.00
8684;DHT22;4379;59.744;18.206;2023-05-07T06:53:28;25.20;81.10
8684;DHT22;4379;59.744;18.206;2023-05-07T06:55:57;26.50;78.30
8684;DHT22;4379;59.744;18.206;2023-05-07T06:58:24;25.60;79.80
8684;DHT22;4379;59.744;18.206;2023-05-07T07:00:51;26.30;79.00
8684;DHT22;4379;59.744;18.206;2023-05-07T07:03:19;27.40;76.40
8684;DHT22;4379;59.744;18.206;2023-05-07T07:05:46;25.00;76.30
8684;DHT22;4379;59.744;18.206;2023-05-07T07:08:13;25.10;80.40
8684;DHT22;4379;59.744;18.206;2023-05-07T07:10:41;26.20;76.30
8684;DHT22;4379;59.744;18.206;2023-05-07T07:13:11;23.30;76.60
8684;DHT22;4379;59.744;18.206;2023-05-07T07:15:39;25.30;77.90
8684;DHT22;4379;59.744;18.206;2023-05-07T07:18:06;26.90;76.80
8684;DHT22;4379;59.744;18.206;2023-05-07T07:20:34;27.30;71.90
8684;DHT22;4379;59.744;18.206;2023-05-07T07:23:01;27.40;74.90
8684;DHT22;4379;59.744;18.206;2023-05-07T07:25:28;29.50;74.70
8684;DHT22;4379;59.744;18.206;2023-05-07T07:27:56;28.50;67.40
8684;DHT22;4379;59.744;18.206;2023-05-07T07:30:23;29.50;68.80
8684;DHT22;4379;59.744;18.206;2023-05-07T07:32:50;29.90;67.10
8684;DHT22;4379;59.744;18.206;2023-05-07T07:35:19;30.50;66.80
8684;DHT22;4379;59.744;18.206;2023-05-07T07:37:50;30.90;67.30
8684;DHT22;4379;59.744;18.206;2023-05-07T07:40:20;30.80;67.20
8684;DHT22;4379;59.744;18.206;2023-05-07T07:42:47;28.60;63.80
8684;DHT22;4379;59.744;18.206;2023-05-07T07:45:14;28.70;67.00
8684;DHT22;4379;59.744;18.206;2023-05-07T07:47:42;28.10;68.30
8684;DHT22;4379;59.744;18.206;2023-05-07T07:50:09;27.10;68.50
8684;DHT22;4379;59.744;18.206;2023-05-07T07:52:40;26.70;69.50
8684;DHT22;4379;59.744;18.206;2023-05-07T07:55:10;27.90;68.50
8684;DHT22;4379;59.744;18.206;2023-05-07T07:57:37;26.80;68.60
8684;DHT22;4379;59.744;18.206;2023-05-07T08:00:05;24.70;69.70
8684;DHT22;4379;59.744;18.206;2023-05-07T08:02:34;25.90;70.50
8684;DHT22;4379;59.744;18.206;2023-05-07T08:05:01;26.50;68.00
8684;DHT22;4379;59.744;18.206;2023-05-07T08:07:29;25.30;69.40
8684;DHT22;4379;59.744;18.206;2023-05-07T08:09:57;26.60;71.70
8684;DHT22;4379;59.744;18.206;2023-05-07T08:12:24;25.40;70.30
8684;DHT22;4379;59.744;18.206;2023-05-07T08:14:52;24.30;69.70
8684;DHT22;4379;59.744;18.206;2023-05-07T08:17:19;25.30;72.60
8684;DHT22;4379;59.744;18.206;2023-05-07T08:19:49;25.00;70.90
8684;DHT22;4379;59.744;18.206;2023-05-07T08:22:16;27.10;70.30
8684;DHT22;4379;59.744;18.206;2023-05-07T08:24:45;27.90;67.00
8684;DHT22;4379;59.744;18.206;2023-05-07T08:27:12;27.00;69.70
8684;DHT22;4379;59.744;18.206;2023-05-07T08:29:39;27.00;67.50
8684;DHT22;4379;59.744;18.206;2023-05-07T08:32:07;25.20;70.40
8684;DHT22;4379;59.744;18.206;2023-05-07T08:34:34;24.70;71.90
8684;DHT22;4379;59.744;18.206;2023-05-07T08:37:01;25.50;68.20
8684;DHT22;4379;59.744;18.206;2023-05-07T08:39:30;23.90;71.20
8684;DHT22;4379;59.744;18.206;2023-05-07T08:42:00;22.00;73.20
8684;DHT22;4379;59.744;18.206;2023-05-07T08:44:32;23.10;72.30
8684;DHT22;4379;59.744;18.206;2023-05-07T08:47:01;22.40;72.50
8684;DHT22;4379;59.744;18.206;2023-05-07T08:49:28;21.50;75.50
8684;DHT22;4379;59.744;18.206;2023-05-07T08:51:55;19.70;75.30
8684;DHT22;4379;59.744;18.206;2023-05-07T08:54:25;18.40;78.50
8684;DHT22;4379;59.744;18.206;2023-05-07T08:56:52;17.80;81.60
8684;DHT22;4379;59.744;18.206;2023-05-07T08:59:19;18.10;80.90
8684;DHT22;4379;59.744;18.206;2023-05-07T09:01:47;16.80;81.30
8684;DHT22;4379;59.744;18.206;2023-05-07T09:04:14;16.20;81.50
8684;DHT22;4379;59.744;18.206;2023-05-07T09:06:41;16.10;85.50
8684;DHT22;4379;59.744;18.206;2023-05-07T09:09:09;16.00;84.60
8684;DHT22;4379;59.744;18.206;2023-05-07T09:11:36;15.70;88.90
8684;DHT22;4379;59.744;18.206;2023-05-07T09:14:03;16.50;84.40
8684;DHT22;4379;59.744;18.206;2023-05-07T09:16:32;16.50;81.50
8684;DHT22;4379;59.744;18.206;2023-05-07T09:19:00;15.40;85.10
8684;DHT22;4379;59.744;18.206;2023-05-07T09:21:27;15.50;87.70
8684;DHT22;4379;59.744;18.206;2023-05-07T09:23:55;15.90;87.30
8684;DHT22;4379;59.744;18.206;2023-05-07T09:26:24;15.50;87.50
8684;DHT22;4379;59.744;18.206;2023-05-07T09:28:51;15.60;87.60
8684;DHT22;4379;59.744;18.206;2023-05-07T09:31:19;15.80;88.90
8684;DHT22;4379;59.744;18.206;2023-05-07T09:33:47;15.80;87.00
8684;DHT22;4379;59.744;18.206;2023-05-07T09:36:15;15.60;86.10
8684;DHT22;4379;59.744;18.206;2023-05-07T09:38:45;14.50;84.40
8684;DHT22;4379;59.744;18.206;2023-05-07T09:41:18;14.80;89.20
8684;DHT22;4379;59.744;18.206;2023-05-07T09:43:46;14.80;88.10
8684;DHT22;4379;59.744;18.206;2023-05-07T09:46:27;15.00;88.50
8684;DHT22;4379;59.744;18.206;2023-05-07T09:48:57;15.20;87.40
8684;DHT22;4379;59.744;18.206;2023-05-07T09:51:34;15.40;85.90
8684;DHT22;4379;59.744;18.206;2023-05-07T09:54:05;14.60;84.90
8684;DHT22;4379;59.744;18.206;2023-05-07T09:56:33;14.90;88.60
8684;DHT22;4379;59.744;18.206;2023-05-07T09:59:01;14.70;87.10
8684;DHT22;4379;59.744;18.206;2023-05-07T10:01:31;14.80;87.60
8684;DHT22;4379;59.744;18.206;2023-05-07T10:03:59;14.80;88.20
8684;DHT22;4379;59.744;18.206;2023-05-07T10:06:26;15.00;86.80
8684;DHT22;4379;59.744;18.206;2023-05-07T10:08:54;15.10;87.30
8684;DHT22;4379;59.744;18.206;2023-05-07T10:11:23;15.30;84.40
8684;DHT22;4379;59.744;18.206;2023-05-07T10:13:52;14.10;88.90
8684;DHT22;4379;59.744;18.206;2023-05-07T10:16:23;14.70;88.70
8684;DHT22;4379;59.744;18.206;2023-05-07T10:18:53;15.10;88.20
8684;DHT22;4379;59.744;18.206;2023-05-07T10:21:23;14.80;89.40
8684;DHT22;4379;59.744;18.206;2023-05-07T10:23:57;15.00;85.90
8684;DHT22;4379;59.744;18.206;2023-05-07T10:26:27;14.90;86.70
8684;DHT22;4379;59.744;18.206;2023-05-07T10:29:02;14.50;86.20
8684;DHT22;4379;59.744;18.206;2023-05-07T10:34:16;14.10;86.60
8684;DHT22;4379;59.744;18.206;2023-05-07T10:36:47;14.40;88.70
8684;DHT22;4379;59.744;18.206;2023-05-07T10:39:15;14.20;88.30
8684;DHT22;4379;59.744;18.206;2023-05-07T10:41:42;14.60;86.70
8684;DHT22;4379;59.744;18.206;2023-05-07T10:44:10;14.70;84.40
8684;DHT22;4379;59.744;18.206;2023-05-07T10:46:37;13.70;85.90
8684;DHT22;4379;59.744;18.206;2023-05-07T10:51:35;13.80;89.30
8684;DHT22;4379;59.744;18.206;2023-05-07T10:56:42;14.30;87.00
8684;DHT22;4379;59.744;18.206;2023-05-07T11:04:29;14.80;87.70
8684;DHT22;4379;59.744;18.206;2023-05-07T11:07:24;14.40;86.90
8684;DHT22;4379;59.744;18.206;2023-05-07T11:15:06;15.00;87.00
8684;DHT22;4379;59.744;18.206;2023-05-07T11:17:35;15.00;88.10
8684;DHT22;4379;59.744;18.206;2023-05-07T11:20:19;15.00;88.00
8684;DHT22;4379;59.744;18.206;2023-05-07T11:22:49;14.30;88.30
8684;DHT22;4379;59.744;18.206;2023-05-07T11:25:19;14.20;86.30
8684;DHT22;4379;59.744;18.206;2023-05-07T11:27:47;13.70;90.00
8684;DHT22;4379;59.744;18.206;2023-05-07T11:30:18;14.30;90.50
8684;DHT22;4379;59.744;18.206;2023-05-07T11:32:47;14.60;89.10
8684;DHT22;4379;59.744;18.206;2023-05-07T11:35:15;15.00;87.60
8684;DHT22;4379;59.744;18.206;2023-05-07T11:37:45;14.90;90.10
8684;DHT22;4379;59.744;18.206;2023-05-07T11:40:12;14.70;87.40
8684;DHT22;4379;59.744;18.206;2023-05-07T11:42:44;14.50;87.80
8684;DHT22;4379;59.744;18.206;2023-05-07T11:45:11;14.50;87.70
8684;DHT22;4379;59.744;18.206;2023-05-07T11:47:41;14.60;87.30
8684;DHT22;4379;59.744;18.206;2023-05-07T11:50:09;14.70;91.20
8684;DHT22;4379;59.744;18.206;2023-05-07T11:52:37;14.60;89.60
8684;DHT22;4379;59.744;18.206;2023-05-07T11:55:07;14.70;88.90
8684;DHT22;4379;59.744;18.206;2023-05-07T11:57:35;14.70;90.20
8684;DHT22;4379;59.744;18.206;2023-05-07T12:00:03;14.80;88.70
8684;DHT22;4379;59.744;18.206;2023-05-07T12:02:34;14.70;89.80
8684;DHT22;4379;59.744;18.206;2023-05-07T12:05:02;14.10;87.90
8684;DHT22;4379;59.744;18.206;2023-05-07T12:07:29;14.20;86.50
8684;DHT22;4379;59.744;18.206;2023-05-07T12:09:56;14.50;89.10
8684;DHT22;4379;59.744;18.206;2023-05-07T12:12:23;14.60;87.40
8684;DHT22;4379;59.744;18.206;2023-05-07T12:14:51;14.10;87.20
8684;DHT22;4379;59.744;18.206;2023-05-07T12:17:19;14.00;86.90
8684;DHT22;4379;59.744;18.206;2023-05-07T12:19:47;14.40;87.50
8684;DHT22;4379;59.744;18.206;2023-05-07T12:22:14;14.80;87.40
8684;DHT22;4379;59.744;18.206;2023-05-07T12:24:50;14.70;87.90
8684;DHT22;4379;59.744;18.206;2023-05-07T12:27:23;14.70;87.50
8684;DHT22;4379;59.744;18.206;2023-05-07T12:29:50;15.00;87.00
8684;DHT22;4379;59.744;18.206;2023-05-07T12:32:21;14.50;89.30
8684;DHT22;4379;59.744;18.206;2023-05-07T12:34:52;14.80;88.70
8684;DHT22;4379;59.744;18.206;2023-05-07T12:37:24;14.80;89.80
8684;DHT22;4379;59.744;18.206;2023-05-07T12:40:08;14.90;88.30
8684;DHT22;4379;59.744;18.206;2023-05-07T12:42:36;14.50;89.00
8684;DHT22;4379;59.744;18.206;2023-05-07T12:45:11;14.40;87.60
8684;DHT22;4379;59.744;18.206;2023-05-07T12:47:39;14.40;87.10
8684;DHT22;4379;59.744;18.206;2023-05-07T12:50:10;14.40;86.90
8684;DHT22;4379;59.744;18.206;2023-05-07T12:52:38;14.20;90.20
8684;DHT22;4379;59.744;18.206;2023-05-07T12:55:06;14.60;90.50
8684;DHT22;4379;59.744;18.206;2023-05-07T12:57:49;14.80;88.30
8684;DHT22;4379;59.744;18.206;2023-05-07T13:00:38;14.60;87.00
8684;DHT22;4379;59.744;18.206;2023-05-07T13:03:05;14.50;88.10
8684;DHT22;4379;59.744;18.206;2023-05-07T13:05:33;14.50;88.80
8684;DHT22;4379;59.744;18.206;2023-05-07T13:08:00;14.80;87.70
8684;DHT22;4379;59.744;18.206;2023-05-07T13:10:28;14.70;86.00
8684;DHT22;4379;59.744;18.206;2023-05-07T13:12:55;14.80;86.00
8684;DHT22;4379;59.744;18.206;2023-05-07T13:15:23;14.40;84.30
8684;DHT22;4379;59.744;18.206;2023-05-07T13:17:50;14.10;86.00
8684;DHT22;4379;59.744;18.206;2023-05-07T13:20:18;14.00;89.00
8684;DHT22;4379;59.744;18.206;2023-05-07T13:22:45;14.50;90.20
8684;DHT22;4379;59.744;18.206;2023-05-07T13:25:12;14.70;90.00
8684;DHT22;4379;59.744;18.206;2023-05-07T13:27:40;14.80;87.60
8684;DHT22;4379;59.744;18.206;2023-05-07T13:30:08;14.60;85.80
8684;DHT22;4379;59.744;18.206;2023-05-07T13:32:35;14.70;83.50
8684;DHT22;4379;59.744;18.206;2023-05-07T13:35:03;14.60;87.60
8684;DHT22;4379;59.744;18.206;2023-05-07T13:37:32;14.80;86.20
8684;DHT22;4379;59.744;18.206;2023-05-07T13:40:02;14.80;84.40
8684;DHT22;4379;59.744;18.206;2023-05-07T13:42:29;14.70;86.10
8684;DHT22;4379;59.744;18.206;2023-05-07T13:44:58;14.50;85.40
8684;DHT22;4379;59.744;18.206;2023-05-07T13:47:25;14.40;88.30
8684;DHT22;4379;59.744;18.206;2023-05-07T13:49:53;14.70;88.00
8684;DHT22;4379;59.744;18.206;2023-05-07T13:52:20;14.60;87.90
8684;DHT22;4379;59.744;18.206;2023-05-07T13:54:47;14.90;85.30
8684;DHT22;4379;59.744;18.206;2023-05-07T13:57:14;14.90;90.70
8684;DHT22;4379;59.744;18.206;2023-05-07T13:59:42;14.50;90.50
8684;DHT22;4379;59.744;18.206;2023-05-07T14:02:09;13.90;90.60
8684;DHT22;4379;59.744;18.206;2023-05-07T14:04:37;13.70;91.60
8684;DHT22;4379;59.744;18.206;2023-05-07T14:07:04;13.90;92.00
8684;DHT22;4379;59.744;18.206;2023-05-07T14:09:32;13.70;91.60
8684;DHT22;4379;59.744;18.206;2023-05-07T14:11:59;14.00;91.90
8684;DHT22;4379;59.744;18.206;2023-05-07T14:14:27;14.20;92.50
8684;DHT22;4379;59.744;18.206;2023-05-07T14:16:55;14.10;91.30
8684;DHT22;4379;59.744;18.206;2023-05-07T14:19:22;14.10;91.00
8684;DHT22;4379;59.744;18.206;2023-05-07T14:21:50;13.80;91.20
8684;DHT22;4379;59.744;18.206;2023-05-07T14:24:17;13.60;92.80
8684;DHT22;4379;59.744;18.206;2023-05-07T14:27:03;13.50;92.40
8684;DHT22;4379;59.744;18.206;2023-05-07T14:29:30;13.80;93.30
8684;DHT22;4379;59.744;18.206;2023-05-07T14:31:57;13.70;92.60
8684;DHT22;4379;59.744;18.206;2023-05-07T14:34:24;13.60;92.70
8684;DHT22;4379;59.744;18.206;2023-05-07T14:36:51;13.60;92.50
8684;DHT22;4379;59.744;18.206;2023-05-07T14:39:19;13.80;92.20
8684;DHT22;4379;59.744;18.206;2023-05-07T14:41:47;13.50;91.80
8684;DHT22;4379;59.744;18.206;2023-05-07T14:44:14;13.50;91.10
8684;DHT22;4379;59.744;18.206;2023-05-07T14:46:41;13.20;91.60
8684;DHT22;4379;59.744;18.206;2023-05-07T14:49:09;13.10;91.70
8684;DHT22;4379;59.744;18.206;2023-05-07T14:51:47;12.80;92.00
8684;DHT22;4379;59.744;18.206;2023-05-07T14:54:15;12.90;92.20
8684;DHT22;4379;59.744;18.206;2023-05-07T14:56:43;12.90;92.60
8684;DHT22;4379;59.744;18.206;2023-05-07T14:59:10;13.00;92.40
8684;DHT22;4379;59.744;18.206;2023-05-07T15:01:38;13.00;92.90
8684;DHT22;4379;59.744;18.206;2023-05-07T15:04:09;13.20;92.90
8684;DHT22;4379;59.744;18.206;2023-05-07T15:06:37;13.10;92.30
8684;DHT22;4379;59.744;18.206;2023-05-07T15:09:04;13.20;93.40
8684;DHT22;4379;59.744;18.206;2023-05-07T15:11:35;13.10;92.80
8684;DHT22;4379;59.744;18.206;2023-05-07T15:14:02;12.90;92.30
8684;DHT22;4379;59.744;18.206;2023-05-07T15:16:29;12.90;92.90
8684;DHT22;4379;59.744;18.206;2023-05-07T15:18:56;13.00;92.30
8684;DHT22;4379;59.744;18.206;2023-05-07T15:21:24;12.80;93.20
8684;DHT22;4379;59.744;18.206;2023-05-07T15:23:53;12.90;92.90
8684;DHT22;4379;59.744;18.206;2023-05-07T15:26:20;12.80;92.40
8684;DHT22;4379;59.744;18.206;2023-05-07T15:28:48;13.00;93.10
8684;DHT22;4379;59.744;18.206;2023-05-07T15:31:15;13.00;93.40
8684;DHT22;4379;59.744;18.206;2023-05-07T15:33:43;13.20;94.10
8684;DHT22;4379;59.744;18.206;2023-05-07T15:36:11;13.30;92.40
8684;DHT22;4379;59.744;18.206;2023-05-07T15:38:38;13.40;92.20
8684;DHT22;4379;59.744;18.206;2023-05-07T15:41:05;13.30;91.90
8684;DHT22;4379;59.744;18.206;2023-05-07T15:43:33;13.10;92.50
8684;DHT22;4379;59.744;18.206;2023-05-07T15:46:00;12.70;92.50
8684;DHT22;4379;59.744;18.206;2023-05-07T15:48:28;12.80;92.70
8684;DHT22;4379;59.744;18.206;2023-05-07T15:50:55;12.70;93.00
8684;DHT22;4379;59.744;18.206;2023-05-07T15:53:23;12.60;92.90
8684;DHT22;4379;59.744;18.206;2023-05-07T15:55:51;12.60;93.70
8684;DHT22;4379;59.744;18.206;2023-05-07T15:58:20;12.50;93.10
8684;DHT22;4379;59.744;18.206;2023-05-07T16:00:47;12.20;93.60
8684;DHT22;4379;59.744;18.206;2023-05-07T16:03:15;12.10;93.60
8684;DHT22;4379;59.744;18.206;2023-05-07T16:05:45;12.20;94.40
8684;DHT22;4379;59.744;18.206;2023-05-07T16:08:12;12.10;93.60
8684;DHT22;4379;59.744;18.206;2023-05-07T16:10:39;12.20;93.20
8684;DHT22;4379;59.744;18.206;2023-05-07T16:13:06;12.30;94.10
8684;DHT22;4379;59.744;18.206;2023-05-07T16:15:34;12.40;94.20